Time;durP1;ratioP1;P1;durP2;ratioP2;P2;SDS_P1;SDS_P2;PMS_P1;PMS_P2;Temp;Humidity;BMP_temperature;BMP_pressure;BME280_temperature;BME280_humidity;BME280_pressure;Samples;Min_cycle;Max_cycle;Signal;HPM_P1;HPM_P2
2022/02/20 00:00:28;;;;;;;3.92;1.47;;;6.70;75.30;;;;;;1872751;75;21073;-53
2022/02/20 00:02:57;;;;;;;2.30;1.55;;;6.70;75.50;;;;;;1872797;77;21061;-53
2022/02/20 00:05:26;;;;;;;2.58;1.22;;;6.70;75.00;;;;;;1872812;76;21053;-52
2022/02/20 00:07:56;;;;;;;1.30;1.20;;;6.70;74.90;;;;;;1872708;76;21107;-53
2022/02/20 00:10:25;;;;;;;2.00;1.32;;;6.70;75.20;;;;;;1872692;76;21010;-53
2022/02/20 00:12:55;;;;;;;1.57;1.47;;;6.70;74.90;;;;;;1872721;75;21005;-53
2022/02/20 00:15:25;;;;;;;1.30;1.20;;;6.70;74.70;;;;;;1872848;75;21030;-53
2022/02/20 00:17:54;;;;;;;3.17;1.27;;;6.80;75.00;;;;;;1872813;76;21021;-52
2022/02/20 00:20:25;;;;;;;2.37;1.57;;;6.70;74.90;;;;;;1872877;75;21010;-52
2022/02/20 00:22:55;;;;;;;3.67;1.98;;;6.80;75.10;;;;;;1872897;75;21119;-53
2022/02/20 00:25:25;;;;;;;1.52;1.20;;;6.80;75.00;;;;;;1872867;75;21053;-52
2022/02/20 00:27:55;;;;;;;4.10;1.40;;;6.80;74.90;;;;;;1872912;76;21065;-52
2022/02/20 00:30:25;;;;;;;3.02;1.32;;;6.80;74.70;;;;;;1872842;76;21033;-52
2022/02/20 00:32:58;;;;;;;2.72;1.75;;;6.80;74.80;;;;;;1872782;76;21021;-52
2022/02/20 00:35:29;;;;;;;1.35;1.10;;;6.70;74.60;;;;;;1872834;77;21041;-52
2022/02/20 00:37:58;;;;;;;2.05;1.40;;;6.70;74.80;;;;;;1872790;76;21084;-51
2022/02/20 00:40:28;;;;;;;2.33;1.30;;;6.70;74.80;;;;;;1872804;75;21108;-52
2022/02/20 00:42:57;;;;;;;1.50;1.30;;;6.70;74.70;;;;;;1872786;76;21115;-50
2022/02/20 00:45:27;;;;;;;0.98;0.90;;;6.70;74.70;;;;;;1872735;76;21006;-50
2022/02/20 00:47:57;;;;;;;4.55;1.40;;;6.70;75.00;;;;;;1872828;75;21010;-53
2022/02/20 00:50:27;;;;;;;1.32;1.10;;;6.70;74.40;;;;;;1872785;76;21162;-51
2022/02/20 00:52:57;;;;;;;2.12;1.40;;;6.70;74.30;;;;;;1872895;75;21123;-52
2022/02/20 00:55:26;;;;;;;1.67;1.30;;;6.70;74.70;;;;;;1872788;76;21034;-52
2022/02/20 00:57:56;;;;;;;2.60;1.47;;;6.70;74.30;;;;;;1872883;75;21049;-51
2022/02/20 01:00:25;;;;;;;1.82;1.25;;;6.70;74.50;;;;;;1872889;75;21069;-51
2022/02/20 01:02:54;;;;;;;1.10;1.00;;;6.70;74.20;;;;;;1872875;75;21028;-52
2022/02/20 01:05:25;;;;;;;1.52;1.10;;;6.70;73.60;;;;;;1872805;76;21045;-51
2022/02/20 01:07:54;;;;;;;1.30;1.10;;;6.70;74.40;;;;;;1872811;75;21034;-52
2022/02/20 01:10:23;;;;;;;0.70;0.70;;;6.70;74.20;;;;;;1872779;77;21013;-52
2022/02/20 01:12:53;;;;;;;1.70;1.15;;;6.70;73.60;;;;;;1872869;75;21107;-51
2022/02/20 01:15:23;;;;;;;1.15;1.05;;;6.70;73.60;;;;;;1872828;76;21036;-52
2022/02/20 01:17:53;;;;;;;1.42;1.25;;;6.70;73.70;;;;;;1872920;77;21194;-53
2022/02/20 01:20:23;;;;;;;0.75;0.75;;;6.70;73.40;;;;;;1872758;75;21025;-52
2022/02/20 01:22:52;;;;;;;2.12;1.30;;;6.70;72.80;;;;;;1872796;76;21010;-53
2022/02/20 01:25:23;;;;;;;1.15;1.07;;;6.70;73.10;;;;;;1872803;75;21038;-52
2022/02/20 01:27:52;;;;;;;1.32;1.02;;;6.70;73.30;;;;;;1872837;76;21452;-50
2022/02/20 01:30:23;;;;;;;2.77;1.42;;;6.70;73.00;;;;;;1872749;75;21127;-53
2022/02/20 01:32:52;;;;;;;1.20;1.10;;;6.70;72.80;;;;;;1872847;76;21147;-52
2022/02/20 01:35:22;;;;;;;1.65;1.10;;;6.70;72.70;;;;;;1872735;75;21033;-50
2022/02/20 01:37:51;;;;;;;1.42;1.17;;;6.70;72.90;;;;;;1872871;76;21218;-52
2022/02/20 01:40:21;;;;;;;1.82;1.17;;;6.70;72.70;;;;;;1872869;75;21107;-53
2022/02/20 01:42:52;;;;;;;1.05;0.95;;;6.70;72.00;;;;;;1872891;75;21534;-51
2022/02/20 01:45:21;;;;;;;4.05;1.20;;;6.70;71.90;;;;;;1872837;75;21034;-52
2022/02/20 01:47:51;;;;;;;1.40;1.22;;;6.70;72.30;;;;;;1872970;75;21127;-52
2022/02/20 01:50:21;;;;;;;2.75;1.20;;;6.70;72.20;;;;;;1872715;75;21092;-52
2022/02/20 01:52:52;;;;;;;2.12;1.02;;;6.70;71.90;;;;;;1872563;76;21036;-52
2022/02/20 01:55:22;;;;;;;1.90;1.05;;;6.60;71.40;;;;;;1872810;76;21111;-52
2022/02/20 01:57:55;;;;;;;1.45;1.17;;;6.60;72.40;;;;;;1832220;76;21045;-51
2022/02/20 02:00:36;;;;;;;1.90;1.20;;;6.60;72.00;;;;;;1870418;75;21069;-53
2022/02/20 02:03:07;;;;;;;2.05;1.30;;;6.60;71.90;;;;;;1868029;75;21122;-53
2022/02/20 02:05:53;;;;;;;1.22;0.98;;;6.60;71.70;;;;;;1813014;78;21196;-52
2022/02/20 02:08:23;;;;;;;0.90;0.72;;;6.50;72.30;;;;;;1854116;77;21123;-53
2022/02/20 02:10:54;;;;;;;2.12;1.40;;;6.60;72.60;;;;;;1867913;75;21134;-52
2022/02/20 02:13:28;;;;;;;1.02;0.95;;;6.60;72.20;;;;;;1868823;77;21081;-52
2022/02/20 02:16:02;;;;;;;2.10;1.00;;;6.60;72.20;;;;;;1870417;77;21085;-53
2022/02/20 02:18:45;;;;;;;0.80;0.80;;;6.60;72.50;;;;;;1868857;76;21093;-52
2022/02/20 02:21:20;;;;;;;3.00;1.40;;;6.60;71.60;;;;;;1866086;75;21128;-53
2022/02/20 02:23:51;;;;;;;1.55;1.20;;;6.60;72.10;;;;;;1872732;77;21132;-52
2022/02/20 02:26:34;;;;;;;0.70;0.70;;;6.50;71.50;;;;;;1856379;75;21063;-52
2022/02/20 02:29:24;;;;;;;1.27;1.10;;;6.60;70.80;;;;;;1912405;74;21078;-52
2022/02/20 02:31:54;;;;;;;1.12;0.80;;;6.60;71.40;;;;;;1924559;74;21471;-52
2022/02/20 02:34:23;;;;;;;1.35;1.15;;;6.50;70.70;;;;;;1924617;74;21000;-52
2022/02/20 02:36:54;;;;;;;1.05;0.95;;;6.50;71.00;;;;;;1924383;74;21164;-52
2022/02/20 02:39:24;;;;;;;1.30;1.20;;;6.50;70.70;;;;;;1924569;74;21109;-53
2022/02/20 02:41:54;;;;;;;1.75;1.00;;;6.50;71.10;;;;;;1924729;74;21035;-54
2022/02/20 02:44:24;;;;;;;1.95;1.07;;;6.60;70.90;;;;;;1924562;74;21099;-53
2022/02/20 02:46:53;;;;;;;3.22;1.40;;;6.60;71.00;;;;;;1924608;74;21117;-52
2022/02/20 02:49:23;;;;;;;0.98;0.80;;;6.60;71.00;;;;;;1924658;74;21036;-52
2022/02/20 02:51:52;;;;;;;1.77;1.00;;;6.60;70.50;;;;;;1924622;74;21051;-53
2022/02/20 02:54:22;;;;;;;4.30;1.32;;;6.60;70.50;;;;;;1924614;74;21036;-53
2022/02/20 02:56:52;;;;;;;0.82;0.65;;;6.60;70.60;;;;;;1924665;74;21040;-52
2022/02/20 02:59:23;;;;;;;1.00;0.85;;;6.60;70.20;;;;;;1924703;74;21109;-52
2022/02/20 03:01:54;;;;;;;1.35;1.05;;;6.50;69.90;;;;;;1924590;74;21012;-53
2022/02/20 03:04:24;;;;;;;0.75;0.68;;;6.60;70.60;;;;;;1924745;74;21431;-52
2022/02/20 03:06:53;;;;;;;0.68;0.60;;;6.60;70.00;;;;;;1924560;74;21094;-51
2022/02/20 03:09:23;;;;;;;1.20;1.00;;;6.60;70.50;;;;;;1924710;74;21059;-53
2022/02/20 03:11:52;;;;;;;7.17;1.50;;;6.60;71.00;;;;;;1924522;74;21115;-53
2022/02/20 03:14:23;;;;;;;1.55;1.10;;;6.60;71.00;;;;;;1923860;74;21072;-52
2022/02/20 03:16:53;;;;;;;1.30;0.93;;;6.60;71.00;;;;;;1891269;74;21129;-52
2022/02/20 03:19:22;;;;;;;1.10;0.93;;;6.70;71.10;;;;;;1924551;74;21109;-52
2022/02/20 03:21:52;;;;;;;3.37;1.20;;;6.60;71.10;;;;;;1924634;74;21113;-52
2022/02/20 03:24:23;;;;;;;1.12;0.93;;;6.60;71.10;;;;;;1924711;74;21031;-53
2022/02/20 03:26:52;;;;;;;2.65;1.20;;;6.60;71.30;;;;;;1924540;74;21012;-53
2022/02/20 03:29:23;;;;;;;1.27;1.10;;;6.70;71.40;;;;;;1917121;74;21217;-52
2022/02/20 03:31:53;;;;;;;2.62;1.20;;;6.60;71.10;;;;;;1902006;75;21049;-53
2022/02/20 03:34:22;;;;;;;2.45;1.62;;;6.60;71.30;;;;;;1902062;75;21037;-52
2022/02/20 03:36:53;;;;;;;1.87;1.22;;;6.70;71.10;;;;;;1901663;75;21060;-52
2022/02/20 03:39:24;;;;;;;3.10;1.10;;;6.70;71.10;;;;;;1900425;75;21119;-53
2022/02/20 03:41:54;;;;;;;1.32;0.80;;;6.70;71.00;;;;;;1902173;75;21480;-53
2022/02/20 03:44:34;;;;;;;6.80;1.22;;;6.70;70.90;;;;;;1898800;75;21048;-52
2022/02/20 03:47:08;;;;;;;1.15;1.00;;;6.70;71.10;;;;;;1900882;75;21428;-53
2022/02/20 03:49:37;;;;;;;3.83;1.10;;;6.70;71.40;;;;;;1901985;75;21032;-51
2022/02/20 03:52:08;;;;;;;1.20;1.10;;;6.70;71.40;;;;;;1899485;75;21138;-53
2022/02/20 03:54:39;;;;;;;1.27;0.90;;;6.70;71.50;;;;;;1900777;75;21149;-52
2022/02/20 03:57:08;;;;;;;2.33;1.62;;;6.70;71.70;;;;;;1902015;75;21032;-53
2022/02/20 03:59:48;;;;;;;1.80;1.27;;;6.70;72.00;;;;;;1871790;77;21046;-53
2022/02/20 04:02:18;;;;;;;1.62;1.35;;;6.70;72.40;;;;;;1902089;75;21004;-53
2022/02/20 04:04:47;;;;;;;1.77;1.40;;;6.70;72.50;;;;;;1902134;75;21122;-51
2022/02/20 04:07:17;;;;;;;6.95;2.47;;;6.70;73.20;;;;;;1902149;75;21467;-53
2022/02/20 04:09:48;;;;;;;2.30;1.77;;;6.70;73.00;;;;;;1876856;75;21009;-52
2022/02/20 04:12:17;;;;;;;3.33;1.40;;;6.70;73.00;;;;;;1901967;75;21130;-51
2022/02/20 04:14:47;;;;;;;2.45;1.72;;;6.70;73.80;;;;;;1902111;75;21040;-52
2022/02/20 04:17:17;;;;;;;38.13;4.10;;;6.70;73.50;;;;;;1902073;75;21058;-52
2022/02/20 04:19:46;;;;;;;1.85;1.37;;;6.80;74.60;;;;;;1901956;75;21036;-53
2022/02/20 04:22:15;;;;;;;2.95;1.77;;;6.80;73.70;;;;;;1902061;75;21471;-53
2022/02/20 04:24:46;;;;;;;4.17;1.80;;;6.80;74.00;;;;;;1902074;75;21036;-52
2022/02/20 04:27:17;;;;;;;1.98;1.77;;;6.80;74.00;;;;;;1901760;75;21029;-52
2022/02/20 04:29:47;;;;;;;2.75;1.98;;;6.80;74.30;;;;;;1906006;74;21125;-54
2022/02/20 04:32:17;;;;;;;2.25;1.98;;;6.80;74.40;;;;;;1924642;74;21027;-52
2022/02/20 04:34:48;;;;;;;4.33;2.20;;;6.80;74.50;;;;;;1924506;74;21552;-52
2022/02/20 04:37:17;;;;;;;3.42;2.30;;;6.80;74.70;;;;;;1924500;74;21000;-53
2022/02/20 04:39:47;;;;;;;3.50;2.25;;;6.80;74.70;;;;;;1924524;74;21008;-53
2022/02/20 04:42:17;;;;;;;2.90;2.22;;;6.80;74.90;;;;;;1924674;74;21121;-53
2022/02/20 04:44:51;;;;;;;4.87;2.43;;;6.80;75.50;;;;;;1922806;74;21067;-53
2022/02/20 04:47:22;;;;;;;4.55;2.45;;;6.80;74.90;;;;;;1923510;74;21096;-55
2022/02/20 04:49:52;;;;;;;4.53;2.47;;;6.80;75.00;;;;;;1924594;74;21105;-54
2022/02/20 04:52:23;;;;;;;4.15;2.62;;;6.80;75.40;;;;;;1923598;74;21091;-53
2022/02/20 04:55:03;;;;;;;4.00;2.80;;;6.80;75.30;;;;;;1923235;74;21104;-54
2022/02/20 04:57:34;;;;;;;4.37;3.08;;;6.90;75.80;;;;;;1924460;74;21121;-53
2022/02/20 05:00:09;;;;;;;4.55;2.27;;;6.90;75.80;;;;;;1924060;74;21109;-53
2022/02/20 05:02:57;;;;;;;9.10;3.25;;;6.90;76.10;;;;;;1924630;74;21580;-54
2022/02/20 05:05:27;;;;;;;5.03;3.02;;;6.90;76.10;;;;;;1924695;74;21033;-52
2022/02/20 05:07:58;;;;;;;2.98;2.67;;;7.00;76.40;;;;;;1924616;74;21034;-52
2022/02/20 05:10:28;;;;;;;2.22;2.00;;;7.00;76.00;;;;;;1924694;74;21032;-54
2022/02/20 05:12:57;;;;;;;4.17;2.58;;;7.00;76.60;;;;;;1924611;74;21090;-52
2022/02/20 05:15:26;;;;;;;4.97;2.77;;;7.10;76.40;;;;;;1924642;74;21459;-54
2022/02/20 05:17:57;;;;;;;4.78;3.08;;;7.10;76.40;;;;;;1924308;74;21120;-53
2022/02/20 05:20:27;;;;;;;10.48;3.95;;;7.20;76.30;;;;;;1924614;74;21121;-53
2022/02/20 05:22:57;;;;;;;4.83;3.00;;;7.20;76.50;;;;;;1924847;74;21032;-53
2022/02/20 05:25:27;;;;;;;4.60;2.70;;;7.30;76.20;;;;;;1924845;74;21097;-54
2022/02/20 05:27:57;;;;;;;5.28;3.42;;;7.30;76.60;;;;;;1924749;74;21000;-52
2022/02/20 05:30:28;;;;;;;15.13;3.50;;;7.30;76.20;;;;;;1923379;74;21066;-54
2022/02/20 05:33:01;;;;;;;3.20;2.37;;;7.40;76.10;;;;;;1922298;74;21111;-54
2022/02/20 05:35:32;;;;;;;3.92;2.50;;;7.40;76.20;;;;;;1924091;74;21525;-53
2022/02/20 05:38:02;;;;;;;3.20;2.90;;;7.50;76.10;;;;;;1924839;74;21035;-54
2022/02/20 05:40:33;;;;;;;2.95;2.62;;;7.50;76.30;;;;;;1924663;74;21040;-53
2022/02/20 05:43:04;;;;;;;7.50;2.62;;;7.60;76.00;;;;;;1924091;74;21044;-53
2022/02/20 05:45:35;;;;;;;3.60;2.58;;;7.60;76.00;;;;;;1924571;74;21047;-53
2022/02/20 05:48:06;;;;;;;7.00;3.00;;;7.70;76.10;;;;;;1923248;74;21184;-53
2022/02/20 05:50:37;;;;;;;4.37;2.37;;;7.80;76.10;;;;;;1923625;74;21116;-53
2022/02/20 05:53:06;;;;;;;6.90;2.50;;;7.80;76.00;;;;;;1924589;74;21117;-53
2022/02/20 05:55:37;;;;;;;6.62;2.92;;;7.90;76.00;;;;;;1924708;74;21121;-53
2022/02/20 05:58:07;;;;;;;2.70;1.85;;;8.00;75.90;;;;;;1924626;74;21121;-53
2022/02/20 06:00:47;;;;;;;2.08;1.77;;;8.00;75.70;;;;;;1922831;74;21047;-52
2022/02/20 06:03:17;;;;;;;3.60;2.33;;;8.00;75.40;;;;;;1924787;74;21105;-54
2022/02/20 06:06:05;;;;;;;5.83;2.30;;;8.10;75.30;;;;;;1924602;74;21113;-55
2022/02/20 06:08:38;;;;;;;7.12;2.22;;;8.10;75.30;;;;;;1923041;74;21155;-53
2022/02/20 06:11:12;;;;;;;6.05;2.98;;;8.10;75.30;;;;;;1919811;74;21127;-53
2022/02/20 06:13:49;;;;;;;2.65;2.17;;;8.10;75.30;;;;;;1923537;74;21095;-54
2022/02/20 06:16:20;;;;;;;4.05;1.95;;;8.10;75.30;;;;;;1919385;74;21117;-54
2022/02/20 06:19:00;;;;;;;6.25;1.80;;;8.20;75.10;;;;;;1923405;74;21178;-53
2022/02/20 06:21:34;;;;;;;3.25;2.55;;;8.20;74.90;;;;;;1919424;74;21053;-54
2022/02/20 06:24:20;;;;;;;4.33;1.90;;;8.20;74.90;;;;;;1921318;74;21071;-55
2022/02/20 06:26:58;;;;;;;2.58;1.98;;;8.20;74.80;;;;;;1904181;74;21150;-54
2022/02/20 06:29:28;;;;;;;3.58;2.05;;;8.20;74.90;;;;;;1924766;74;21008;-53
2022/02/20 06:31:59;;;;;;;8.75;2.83;;;8.20;74.80;;;;;;1911104;74;21044;-54
2022/02/20 06:34:30;;;;;;;4.85;2.15;;;8.30;74.80;;;;;;1901552;75;21036;-54
2022/02/20 06:37:00;;;;;;;3.30;2.22;;;8.30;74.80;;;;;;1902125;75;21094;-52
2022/02/20 06:39:32;;;;;;;5.35;2.10;;;8.30;74.80;;;;;;1902181;75;21049;-53
2022/02/20 06:42:02;;;;;;;7.40;2.65;;;8.30;74.90;;;;;;1902006;75;21631;-53
2022/02/20 06:44:31;;;;;;;6.45;2.55;;;8.40;75.00;;;;;;1902224;75;21064;-54
2022/02/20 06:47:18;;;;;;;5.28;2.27;;;8.40;74.80;;;;;;1902058;75;21064;-53
2022/02/20 06:49:58;;;;;;;4.10;1.37;;;8.50;74.90;;;;;;1891615;75;21041;-54
2022/02/20 06:52:29;;;;;;;3.40;1.90;;;8.40;74.90;;;;;;1898643;75;21123;-54
2022/02/20 06:55:00;;;;;;;3.40;2.22;;;8.50;74.80;;;;;;1898117;75;21036;-53
2022/02/20 06:57:36;;;;;;;3.35;1.92;;;8.50;74.80;;;;;;1900069;75;21138;-53
2022/02/20 07:00:13;;;;;;;4.08;2.10;;;8.50;74.80;;;;;;1902067;75;21487;-53
2022/02/20 07:02:43;;;;;;;3.72;2.47;;;8.50;74.80;;;;;;1902160;75;21114;-55
2022/02/20 07:05:12;;;;;;;3.50;2.30;;;8.50;74.70;;;;;;1902068;75;21083;-53
2022/02/20 07:07:42;;;;;;;2.37;2.10;;;8.60;74.60;;;;;;1902124;75;21165;-53
2022/02/20 07:10:11;;;;;;;8.63;2.58;;;8.60;74.70;;;;;;1902174;75;21149;-54
2022/02/20 07:12:41;;;;;;;3.70;2.77;;;8.70;74.80;;;;;;1902065;75;21032;-54
2022/02/20 07:15:11;;;;;;;4.62;2.05;;;8.70;74.70;;;;;;1902052;75;21048;-53
2022/02/20 07:17:40;;;;;;;2.72;2.12;;;8.70;74.80;;;;;;1902082;75;21005;-53
2022/02/20 07:20:10;;;;;;;6.28;2.02;;;8.80;74.40;;;;;;1902158;75;21515;-54
2022/02/20 07:22:40;;;;;;;3.15;2.40;;;8.80;74.30;;;;;;1902063;75;21033;-51
2022/02/20 07:25:09;;;;;;;4.97;2.50;;;8.90;74.30;;;;;;1902026;75;21009;-53
2022/02/20 07:27:40;;;;;;;6.62;1.62;;;8.90;74.00;;;;;;1902087;75;21119;-54
2022/02/20 07:30:12;;;;;;;2.67;2.25;;;9.00;73.90;;;;;;1901145;75;21514;-53
2022/02/20 07:32:41;;;;;;;4.08;2.47;;;9.10;73.60;;;;;;1916484;74;21075;-54
2022/02/20 07:35:11;;;;;;;4.80;2.22;;;9.10;73.50;;;;;;1924585;74;21031;-53
2022/02/20 07:37:40;;;;;;;3.85;2.22;;;9.10;73.30;;;;;;1924726;74;21047;-53
2022/02/20 07:40:11;;;;;;;2.62;1.67;;;9.20;73.50;;;;;;1924530;74;21035;-53
2022/02/20 07:42:41;;;;;;;3.40;1.55;;;9.30;72.40;;;;;;1924407;74;21184;-53
2022/02/20 07:45:11;;;;;;;2.70;2.10;;;9.30;72.70;;;;;;1924526;74;21103;-53
2022/02/20 07:47:48;;;;;;;5.47;3.42;;;9.40;73.00;;;;;;1923140;74;21091;-53
2022/02/20 07:50:17;;;;;;;1.12;1.02;;;9.40;72.80;;;;;;1922507;74;21118;-54
2022/02/20 07:52:47;;;;;;;2.22;2.02;;;9.50;71.30;;;;;;1924606;74;21058;-52
2022/02/20 07:55:17;;;;;;;5.05;2.12;;;9.50;71.70;;;;;;1924627;74;21015;-54
2022/02/20 07:57:46;;;;;;;3.40;2.20;;;9.50;72.10;;;;;;1924538;74;21040;-54
2022/02/20 08:00:18;;;;;;;2.30;2.00;;;9.60;72.00;;;;;;1924485;74;21032;-53
2022/02/20 08:02:47;;;;;;;6.87;2.40;;;9.60;71.70;;;;;;1924540;74;21113;-52
2022/02/20 08:05:17;;;;;;;8.08;2.75;;;9.70;71.80;;;;;;1924241;74;21167;-52
2022/02/20 08:07:46;;;;;;;7.65;2.20;;;9.70;71.40;;;;;;1923975;74;21019;-54
2022/02/20 08:10:16;;;;;;;4.90;2.37;;;9.80;71.00;;;;;;1924401;74;21040;-52
2022/02/20 08:12:45;;;;;;;3.08;2.15;;;9.70;71.30;;;;;;1924488;74;21030;-51
2022/02/20 08:15:15;;;;;;;3.33;2.40;;;9.80;71.40;;;;;;1924728;74;21031;-52
2022/02/20 08:17:46;;;;;;;6.05;2.72;;;9.80;71.10;;;;;;1924495;74;21039;-53
2022/02/20 08:20:18;;;;;;;3.30;2.55;;;9.90;71.10;;;;;;1923967;74;21028;-53
2022/02/20 08:22:47;;;;;;;12.05;5.92;;;9.90;71.80;;;;;;1924420;74;21109;-53
2022/02/20 08:25:17;;;;;;;3.30;2.80;;;9.90;71.90;;;;;;1924608;74;21137;-53
2022/02/20 08:27:46;;;;;;;2.30;1.60;;;10.00;71.60;;;;;;1924552;74;21048;-53
2022/02/20 08:30:16;;;;;;;4.90;2.20;;;10.10;71.20;;;;;;1924374;74;21031;-53
2022/02/20 08:32:46;;;;;;;2.60;2.40;;;10.10;70.70;;;;;;1914797;74;21138;-53
2022/02/20 08:35:15;;;;;;;4.70;1.82;;;10.20;70.60;;;;;;1901983;75;21029;-51
2022/02/20 08:37:46;;;;;;;3.87;1.87;;;10.10;70.30;;;;;;1902130;75;21004;-53
2022/02/20 08:40:18;;;;;;;2.20;2.00;;;10.20;70.40;;;;;;1902185;75;21080;-54
2022/02/20 08:42:48;;;;;;;6.78;2.83;;;10.20;70.60;;;;;;1902130;75;21006;-53
2022/02/20 08:45:18;;;;;;;3.72;2.40;;;10.20;70.60;;;;;;1902191;75;21036;-53
2022/02/20 08:47:47;;;;;;;5.40;2.05;;;10.30;70.40;;;;;;1902165;75;21118;-53
2022/02/20 08:50:17;;;;;;;3.40;2.08;;;10.40;70.50;;;;;;1902102;75;21036;-52
2022/02/20 08:52:46;;;;;;;4.45;2.20;;;10.40;69.60;;;;;;1902134;75;21123;-54
2022/02/20 08:55:16;;;;;;;4.10;2.50;;;10.40;69.50;;;;;;1902047;75;21032;-51
2022/02/20 08:57:45;;;;;;;3.65;2.00;;;10.40;69.20;;;;;;1902086;75;21033;-53
2022/02/20 09:00:15;;;;;;;4.25;2.45;;;10.40;69.60;;;;;;1902170;75;21012;-54
2022/02/20 09:02:45;;;;;;;2.37;2.17;;;10.40;69.40;;;;;;1902163;75;21048;-52
2022/02/20 09:05:14;;;;;;;3.12;1.80;;;10.50;68.70;;;;;;1902086;75;21114;-53
2022/02/20 09:07:43;;;;;;;3.60;1.60;;;10.50;69.00;;;;;;1902073;75;21099;-53
2022/02/20 09:10:13;;;;;;;9.55;3.02;;;10.50;68.30;;;;;;1902155;75;21087;-53
2022/02/20 09:12:43;;;;;;;5.03;1.82;;;10.50;68.40;;;;;;1902170;75;21060;-53
2022/02/20 09:15:12;;;;;;;5.45;2.20;;;10.50;68.40;;;;;;1902065;75;21080;-52
2022/02/20 09:17:41;;;;;;;1.52;1.42;;;10.50;68.90;;;;;;1902155;75;21032;-53
2022/02/20 09:20:12;;;;;;;2.75;2.00;;;10.50;68.90;;;;;;1902042;75;21106;-53
2022/02/20 09:22:42;;;;;;;13.10;2.58;;;10.50;68.60;;;;;;1902101;75;21029;-52
2022/02/20 09:25:12;;;;;;;8.63;2.52;;;10.50;68.30;;;;;;1902127;75;21083;-54
2022/02/20 09:27:42;;;;;;;2.05;1.70;;;10.50;68.30;;;;;;1902086;75;21034;-53
2022/02/20 09:30:12;;;;;;;2.75;1.70;;;10.60;68.40;;;;;;1902159;75;21052;-52
2022/02/20 09:32:42;;;;;;;6.55;2.10;;;10.60;68.40;;;;;;1904965;74;21434;-54
2022/02/20 09:35:12;;;;;;;2.20;1.27;;;10.70;67.10;;;;;;1924605;74;21004;-53
2022/02/20 09:37:42;;;;;;;3.65;2.00;;;10.70;66.10;;;;;;1924777;74;21008;-53
2022/02/20 09:40:12;;;;;;;3.58;1.82;;;10.70;65.90;;;;;;1924652;74;21113;-53
2022/02/20 09:42:41;;;;;;;4.60;2.40;;;10.70;65.90;;;;;;1924685;74;21101;-53
2022/02/20 09:45:11;;;;;;;3.60;1.92;;;10.70;66.20;;;;;;1924527;74;21195;-53
2022/02/20 09:47:40;;;;;;;3.62;1.80;;;10.70;66.10;;;;;;1924547;74;21028;-53
2022/02/20 09:50:10;;;;;;;5.12;1.98;;;10.70;65.50;;;;;;1924598;74;21098;-54
2022/02/20 09:52:39;;;;;;;5.65;2.20;;;10.70;66.10;;;;;;1924562;74;21587;-53
2022/02/20 09:55:09;;;;;;;4.30;2.77;;;10.70;65.40;;;;;;1924726;74;21035;-52
2022/02/20 09:57:38;;;;;;;4.15;3.05;;;10.70;65.70;;;;;;1924598;74;21036;-54
2022/02/20 10:00:10;;;;;;;4.95;3.67;;;10.70;65.30;;;;;;1924599;74;21024;-53
2022/02/20 10:02:42;;;;;;;7.25;4.28;;;10.70;65.10;;;;;;1924849;74;21121;-53
2022/02/20 10:05:17;;;;;;;6.45;4.10;;;10.70;65.70;;;;;;1924598;74;21031;-53
2022/02/20 10:07:47;;;;;;;6.20;4.42;;;10.70;65.40;;;;;;1924403;74;21111;-54
2022/02/20 10:10:18;;;;;;;6.72;4.95;;;10.70;65.60;;;;;;1924786;74;21027;-52
2022/02/20 10:12:49;;;;;;;13.90;5.53;;;10.70;65.80;;;;;;1924612;74;21000;-53
2022/02/20 10:15:35;;;;;;;5.67;3.72;;;10.70;66.40;;;;;;1921477;74;21494;-53
2022/02/20 10:18:13;;;;;;;6.05;4.28;;;10.70;65.50;;;;;;1919332;74;21019;-53
2022/02/20 10:21:04;;;;;;;7.00;4.30;;;10.80;65.90;;;;;;1897376;74;21024;-54
2022/02/20 10:23:44;;;;;;;7.70;5.03;;;10.80;65.70;;;;;;1884309;76;21151;-53
2022/02/20 10:26:36;;;;;;;10.20;5.87;;;10.90;66.10;;;;;;1924570;74;21052;-52
2022/02/20 10:29:09;;;;;;;33.00;17.25;;;10.90;65.50;;;;;;1912106;74;21032;-53
2022/02/20 10:31:50;;;;;;;13.32;6.75;;;11.00;65.50;;;;;;1924700;74;21109;-54
2022/02/20 10:34:22;;;;;;;4.78;3.72;;;11.00;65.90;;;;;;1923619;74;21031;-53
2022/02/20 10:36:53;;;;;;;11.68;4.80;;;11.00;66.10;;;;;;1924727;74;21028;-52
2022/02/20 10:39:29;;;;;;;6.33;3.87;;;11.00;65.90;;;;;;1924638;74;21095;-52
2022/02/20 10:42:01;;;;;;;9.25;4.20;;;11.00;65.40;;;;;;1924591;74;21023;-54
2022/02/20 10:44:30;;;;;;;6.47;4.10;;;11.00;65.90;;;;;;1924602;74;21027;-54
2022/02/20 10:47:14;;;;;;;7.15;5.47;;;11.00;66.20;;;;;;1924674;74;21008;-53
2022/02/20 10:49:44;;;;;;;8.28;4.87;;;11.00;66.10;;;;;;1924599;74;21067;-54
2022/02/20 10:52:24;;;;;;;12.33;4.72;;;11.00;66.40;;;;;;1924688;74;21118;-52
2022/02/20 10:55:05;;;;;;;12.63;6.05;;;11.00;66.80;;;;;;1924706;74;21098;-52
2022/02/20 10:57:36;;;;;;;6.78;4.60;;;11.00;65.90;;;;;;1924613;74;21044;-51
2022/02/20 11:00:20;;;;;;;8.70;4.33;;;11.10;66.10;;;;;;1924568;74;21000;-52
2022/02/20 11:03:07;;;;;;;8.98;5.80;;;11.10;65.90;;;;;;1924760;74;21105;-53
2022/02/20 11:05:39;;;;;;;8.45;4.92;;;11.10;66.00;;;;;;1924022;74;21072;-52
2022/02/20 11:08:10;;;;;;;6.25;4.70;;;11.10;66.10;;;;;;1924814;74;21044;-53
2022/02/20 11:10:40;;;;;;;9.33;4.40;;;11.10;66.10;;;;;;1923919;74;21051;-53
2022/02/20 11:13:11;;;;;;;13.22;5.55;;;11.10;66.20;;;;;;1924606;74;21040;-51
2022/02/20 11:15:42;;;;;;;7.40;4.22;;;11.10;66.60;;;;;;1924914;74;21462;-52
2022/02/20 11:18:16;;;;;;;10.63;6.10;;;11.20;66.40;;;;;;1924630;74;21035;-52
2022/02/20 11:20:47;;;;;;;7.33;4.70;;;11.20;66.80;;;;;;1924993;74;21044;-53
2022/02/20 11:23:19;;;;;;;13.68;9.48;;;11.20;66.10;;;;;;1924644;74;21028;-52
2022/02/20 11:25:50;;;;;;;11.93;7.33;;;11.20;66.30;;;;;;1923773;74;21046;-52
2022/02/20 11:28:20;;;;;;;5.70;4.05;;;11.30;66.40;;;;;;1924692;74;21102;-51
2022/02/20 11:30:49;;;;;;;4.55;3.75;;;11.30;65.90;;;;;;1924698;74;21114;-52
2022/02/20 11:33:20;;;;;;;8.73;4.72;;;11.20;65.70;;;;;;1924529;74;21036;-52
2022/02/20 11:35:52;;;;;;;7.08;5.37;;;11.30;66.20;;;;;;1924527;74;21067;-53
2022/02/20 11:38:24;;;;;;;9.85;3.45;;;11.30;66.30;;;;;;1924690;74;21568;-50
2022/02/20 11:41:12;;;;;;;4.40;3.67;;;11.30;65.30;;;;;;1924630;74;21575;-53
2022/02/20 11:43:46;;;;;;;7.75;3.95;;;11.40;65.20;;;;;;1924504;74;21043;-53
2022/02/20 11:46:25;;;;;;;4.75;3.90;;;11.40;65.60;;;;;;1924841;74;21031;-53
2022/02/20 11:49:16;;;;;;;7.97;4.97;;;11.30;65.20;;;;;;1924534;74;21164;-51
2022/02/20 11:52:01;;;;;;;11.35;4.85;;;11.40;64.90;;;;;;1924139;74;21121;-53
2022/02/20 11:54:32;;;;;;;6.12;4.35;;;11.40;65.30;;;;;;1924636;74;21109;-53
2022/02/20 11:57:18;;;;;;;9.65;5.28;;;11.40;65.70;;;;;;1924584;74;21024;-52
2022/02/20 12:00:07;;;;;;;;;;;11.40;65.90;;;;;;1927433;74;21040;-53
2022/02/20 12:03:02;;;;;;;6.30;3.27;;;11.30;65.20;;;;;;1924513;74;20110;-52
2022/02/20 12:05:32;;;;;;;6.97;4.62;;;11.20;65.20;;;;;;1924815;74;21028;-53
2022/02/20 12:08:10;;;;;;;11.57;5.65;;;11.10;65.60;;;;;;1924538;74;21097;-52
2022/02/20 12:10:40;;;;;;;7.25;4.55;;;11.00;66.20;;;;;;1919592;74;21052;-52
2022/02/20 12:13:12;;;;;;;5.65;3.37;;;11.00;66.10;;;;;;1924325;74;21185;-53
2022/02/20 12:15:45;;;;;;;5.97;4.78;;;11.00;66.10;;;;;;1924526;74;21028;-54
2022/02/20 12:18:16;;;;;;;6.12;4.00;;;10.90;66.30;;;;;;1924575;74;21153;-52
2022/02/20 12:20:57;;;;;;;7.92;4.95;;;10.90;66.30;;;;;;1924577;74;21126;-53
2022/02/20 12:23:51;;;;;;;9.25;5.28;;;10.90;66.50;;;;;;1924500;74;21043;-53
2022/02/20 12:26:51;;;;;;;7.12;3.87;;;10.90;66.60;;;;;;1924689;74;21113;-53
2022/02/20 12:29:18;;;;;;;7.47;4.55;;;10.90;66.90;;;;;;1923480;74;21102;-53
2022/02/20 12:32:03;;;;;;;9.53;5.62;;;10.90;67.00;;;;;;1924686;74;21051;-52
2022/02/20 12:34:47;;;;;;;11.00;5.15;;;10.90;67.00;;;;;;1924605;74;21000;-53
2022/02/20 12:37:19;;;;;;;8.13;5.15;;;10.90;67.20;;;;;;1924632;74;21055;-53
2022/02/20 12:40:02;;;;;;;19.05;7.87;;;10.90;67.00;;;;;;1924551;74;21113;-54
2022/02/20 12:42:34;;;;;;;7.45;5.22;;;10.90;66.90;;;;;;1924493;74;21056;-54
2022/02/20 12:45:06;;;;;;;14.53;4.78;;;10.90;67.20;;;;;;1924657;74;21015;-54
2022/02/20 12:47:38;;;;;;;6.12;4.35;;;10.90;67.40;;;;;;1924178;74;21125;-51
2022/02/20 12:50:09;;;;;;;7.05;4.67;;;10.90;67.10;;;;;;1924634;74;21031;-53
2022/02/20 12:52:40;;;;;;;8.18;5.80;;;10.90;67.00;;;;;;1924646;74;21036;-53
2022/02/20 12:55:14;;;;;;;5.92;4.47;;;10.90;67.10;;;;;;1924506;74;21035;-53
2022/02/20 12:57:43;;;;;;;8.08;5.30;;;10.90;66.90;;;;;;1924617;74;21111;-53
2022/02/20 13:00:16;;;;;;;9.80;4.62;;;10.90;66.80;;;;;;1924542;74;21032;-53
2022/02/20 13:02:55;;;;;;;7.17;4.90;;;10.90;66.60;;;;;;1924501;74;21064;-52
2022/02/20 13:05:29;;;;;;;8.43;5.72;;;10.90;67.10;;;;;;1924489;74;21024;-53
2022/02/20 13:08:03;;;;;;;10.38;4.67;;;10.90;67.30;;;;;;1924538;74;21098;-54
2022/02/20 13:10:35;;;;;;;10.45;5.35;;;10.90;67.40;;;;;;1923904;74;21099;-54
2022/02/20 13:13:09;;;;;;;6.65;5.00;;;10.80;67.40;;;;;;1924492;74;21103;-53
2022/02/20 13:15:53;;;;;;;9.20;5.40;;;10.80;67.40;;;;;;1924488;74;21524;-54
2022/02/20 13:18:21;;;;;;;8.83;5.58;;;10.80;67.60;;;;;;1923402;74;21040;-53